Time;durP1;ratioP1;P1;durP2;ratioP2;P2;SDS_P1;SDS_P2;PMS_P1;PMS_P2;Temp;Humidity;BMP_temperature;BMP_pressure;BME280_temperature;BME280_humidity;BME280_pressure;Samples;Min_cycle;Max_cycle;Signal;HPM_P1;HPM_P2
2023/08/10 00:00:09;;;;;;;;;;;;;;;25.28;34.11;100110.91;5053539;28;19944;-64
2023/08/10 00:02:34;;;;;;;;;;;;;;;25.28;33.91;100118.34;5053474;28;19982;-65
2023/08/10 00:04:59;;;;;;;;;;;;;;;25.28;34.18;100110.09;5053842;28;19921;-65
2023/08/10 00:07:24;;;;;;;;;;;;;;;25.31;34.06;100120.47;5053484;28;20356;-65
2023/08/10 00:09:50;;;;;;;;;;;;;;;25.27;34.37;100114.75;5053819;28;19912;-65
2023/08/10 00:12:15;;;;;;;;;;;;;;;25.30;34.20;100107.84;5053694;28;19913;-65
2023/08/10 00:14:41;;;;;;;;;;;;;;;25.32;34.07;100119.38;5053477;28;19921;-64
2023/08/10 00:17:06;;;;;;;;;;;;;;;25.35;34.31;100118.75;5053435;28;20235;-64
2023/08/10 00:19:32;;;;;;;;;;;;;;;25.29;34.33;100119.97;5053419;28;19935;-64
2023/08/10 00:21:57;;;;;;;;;;;;;;;25.29;34.48;100108.97;5053402;28;19915;-64
2023/08/10 00:24:22;;;;;;;;;;;;;;;25.27;34.24;100117.50;5052801;28;20066;-64
2023/08/10 00:26:48;;;;;;;;;;;;;;;25.14;34.17;100128.44;5034990;28;19982;-64
2023/08/10 00:29:13;;;;;;;;;;;;;;;25.06;34.38;100122.50;5052247;28;19913;-65
2023/08/10 00:31:38;;;;;;;;;;;;;;;25.04;34.32;100124.72;5052987;28;19917;-65
2023/08/10 00:34:04;;;;;;;;;;;;;;;25.03;34.70;100133.25;5053312;28;19917;-65
2023/08/10 00:36:30;;;;;;;;;;;;;;;25.03;34.37;100133.25;5052547;28;19917;-65
2023/08/10 00:38:56;;;;;;;;;;;;;;;25.01;34.40;100124.50;5053211;28;19919;-65
2023/08/10 00:41:21;;;;;;;;;;;;;;;24.99;34.47;100124.00;5052767;28;19920;-65
2023/08/10 00:43:46;;;;;;;;;;;;;;;24.93;34.27;100129.56;5054711;28;19964;-65
2023/08/10 00:46:12;;;;;;;;;;;;;;;24.90;34.49;100121.91;5073045;28;19912;-65
2023/08/10 00:48:37;;;;;;;;;;;;;;;24.85;34.49;100140.41;5072861;28;19912;-65
2023/08/10 00:51:03;;;;;;;;;;;;;;;24.80;34.46;100135.81;5073178;28;20272;-65
2023/08/10 00:53:28;;;;;;;;;;;;;;;24.78;34.71;100139.97;5072679;28;20019;-65
2023/08/10 00:55:54;;;;;;;;;;;;;;;24.77;34.47;100139.13;5057589;28;19921;-65
2023/08/10 00:58:20;;;;;;;;;;;;;;;24.80;34.34;100149.53;5052364;28;19917;-65
2023/08/10 01:00:46;;;;;;;;;;;;;;;24.65;34.44;100149.75;5052365;28;19913;-65
2023/08/10 01:03:11;;;;;;;;;;;;;;;24.62;34.76;100145.66;5060513;28;19973;-66
2023/08/10 01:05:45;;;;;;;;;;;;;;;24.61;34.49;100149.53;5070838;28;19943;-64
2023/08/10 01:08:12;;;;;;;;;;;;;;;24.59;34.84;100151.75;5070547;28;19923;-64
2023/08/10 01:10:44;;;;;;;;;;;;;;;24.64;34.93;100161.84;5072816;28;19917;-64
2023/08/10 01:13:12;;;;;;;;;;;;;;;24.64;34.68;100167.34;5072833;28;20361;-64
2023/08/10 01:15:40;;;;;;;;;;;;;;;24.58;34.92;100168.53;5073109;28;20246;-64
2023/08/10 01:18:09;;;;;;;;;;;;;;;24.57;34.67;100166.88;5054591;28;19912;-64
2023/08/10 01:20:35;;;;;;;;;;;;;;;24.60;34.65;100164.38;5054610;28;19917;-64
2023/08/10 01:23:00;;;;;;;;;;;;;;;24.60;34.87;100163.56;5072523;28;20008;-64
2023/08/10 01:25:27;;;;;;;;;;;;;;;24.58;34.86;100166.59;5072066;28;20007;-64
2023/08/10 01:27:52;;;;;;;;;;;;;;;24.56;34.95;100168.00;5072237;28;19966;-64
2023/08/10 01:30:20;;;;;;;;;;;;;;;24.51;34.72;100164.16;5072273;28;19913;-64
2023/08/10 01:32:46;;;;;;;;;;;;;;;24.49;35.10;100166.38;5072320;28;19935;-64
2023/08/10 01:35:12;;;;;;;;;;;;;;;24.50;34.91;100168.03;5072505;28;19942;-64
2023/08/10 01:37:37;;;;;;;;;;;;;;;24.51;35.04;100166.09;5071378;28;19912;-64
2023/08/10 01:40:10;;;;;;;;;;;;;;;24.57;35.15;100167.69;5071941;28;19966;-64
2023/08/10 01:42:35;;;;;;;;;;;;;;;24.56;34.95;100173.50;5075986;28;19966;-64
2023/08/10 01:45:03;;;;;;;;;;;;;;;24.57;35.03;100169.63;5089916;28;19916;-64
2023/08/10 01:47:36;;;;;;;;;;;;;;;24.58;35.14;100188.56;5096128;28;20644;-64
2023/08/10 01:50:04;;;;;;;;;;;;;;;24.55;35.07;100180.91;5096458;28;19918;-64
2023/08/10 01:52:45;;;;;;;;;;;;;;;24.56;35.22;100181.75;5074333;28;19958;-64
2023/08/10 01:55:11;;;;;;;;;;;;;;;24.63;35.09;100182.19;5075703;28;20011;-64
2023/08/10 01:57:43;;;;;;;;;;;;;;;24.62;35.13;100184.09;5076072;28;20355;-64
2023/08/10 02:00:09;;;;;;;;;;;;;;;24.64;34.90;100186.56;5075754;28;19999;-64
2023/08/10 02:02:34;;;;;;;;;;;;;;;24.68;35.13;100187.59;5075755;28;19928;-66
2023/08/10 02:04:59;;;;;;;;;;;;;;;24.68;34.62;100185.69;5075876;28;19917;-64
2023/08/10 02:07:25;;;;;;;;;;;;;;;24.65;34.96;100188.22;5075682;28;19924;-66
2023/08/10 02:09:50;;;;;;;;;;;;;;;24.65;35.00;100186.28;5075856;28;20349;-66
2023/08/10 02:12:16;;;;;;;;;;;;;;;24.69;34.82;100183.75;5058053;28;19912;-66
2023/08/10 02:14:41;;;;;;;;;;;;;;;24.68;34.89;100187.59;5076149;28;19919;-66
2023/08/10 02:17:07;;;;;;;;;;;;;;;24.71;34.74;100181.53;5076056;28;20058;-66
2023/08/10 02:19:32;;;;;;;;;;;;;;;24.72;34.76;100183.97;5075734;28;19912;-67
2023/08/10 02:21:57;;;;;;;;;;;;;;;24.74;34.83;100186.44;5057670;28;19913;-66
2023/08/10 02:24:23;;;;;;;;;;;;;;;24.76;34.93;100184.22;5061181;28;19947;-67
2023/08/10 02:26:48;;;;;;;;;;;;;;;24.72;34.92;100196.88;5055424;28;19919;-66
2023/08/10 02:29:13;;;;;;;;;;;;;;;24.73;34.54;100199.34;5055375;28;19916;-67
2023/08/10 02:31:39;;;;;;;;;;;;;;;24.76;34.84;100205.34;5055634;28;20301;-67
2023/08/10 02:34:04;;;;;;;;;;;;;;;24.79;34.95;100205.56;5071802;28;20008;-67
2023/08/10 02:36:29;;;;;;;;;;;;;;;24.81;34.69;100206.09;5074793;28;19923;-67
2023/08/10 02:38:54;;;;;;;;;;;;;;;24.80;34.56;100209.97;5075458;28;20331;-66
2023/08/10 02:41:19;;;;;;;;;;;;;;;24.76;34.58;100216.31;5075350;28;20110;-66
2023/08/10 02:43:45;;;;;;;;;;;;;;;24.77;34.81;100217.97;5078978;28;19994;-66
2023/08/10 02:46:10;;;;;;;;;;;;;;;24.77;34.58;100228.97;5095758;28;19911;-66
2023/08/10 02:48:35;;;;;;;;;;;;;;;24.75;34.94;100220.22;5095540;28;19999;-66
2023/08/10 02:51:01;;;;;;;;;;;;;;;24.77;34.88;100221.53;5095424;28;19919;-65
2023/08/10 02:53:26;;;;;;;;;;;;;;;24.80;34.75;100220.16;5082046;28;19916;-65
2023/08/10 02:55:51;;;;;;;;;;;;;;;24.76;34.70;100219.91;5075066;28;19912;-65
2023/08/10 02:58:16;;;;;;;;;;;;;;;24.69;34.80;100219.47;5075438;28;20003;-65
2023/08/10 03:00:42;;;;;;;;;;;;;;;24.62;34.54;100219.81;5075162;28;20019;-65
2023/08/10 03:03:07;;;;;;;;;;;;;;;24.61;34.92;100226.41;5075008;28;20268;-65
2023/08/10 03:05:33;;;;;;;;;;;;;;;24.59;34.77;100217.66;5076544;28;19920;-65
2023/08/10 03:07:59;;;;;;;;;;;;;;;24.63;34.99;100223.38;5074497;28;20441;-65
2023/08/10 03:10:24;;;;;;;;;;;;;;;24.63;34.88;100223.38;5074722;28;20343;-65
2023/08/10 03:12:49;;;;;;;;;;;;;;;24.61;34.66;100223.69;5074789;28;19920;-65
2023/08/10 03:15:15;;;;;;;;;;;;;;;24.60;34.74;100223.97;5075029;28;19912;-65
2023/08/10 03:17:40;;;;;;;;;;;;;;;24.61;34.76;100223.69;5075151;28;19913;-66
2023/08/10 03:20:12;;;;;;;;;;;;;;;24.59;34.87;100219.56;5074678;28;19912;-66
2023/08/10 03:22:38;;;;;;;;;;;;;;;24.64;34.76;100227.75;5074585;28;19920;-66
2023/08/10 03:25:03;;;;;;;;;;;;;;;24.67;34.84;100230.72;5074568;28;19916;-66
2023/08/10 03:27:28;;;;;;;;;;;;;;;24.71;34.85;100230.97;5074297;28;19939;-66
2023/08/10 03:29:54;;;;;;;;;;;;;;;24.69;34.96;100230.44;5074224;28;19932;-66
2023/08/10 03:32:19;;;;;;;;;;;;;;;24.65;35.02;100226.66;5074307;28;19912;-66
2023/08/10 03:34:44;;;;;;;;;;;;;;;24.60;34.88;100229.47;5074751;28;19958;-66
2023/08/10 03:37:09;;;;;;;;;;;;;;;24.67;34.55;100233.47;5073733;28;20280;-66
2023/08/10 03:39:35;;;;;;;;;;;;;;;24.67;34.79;100227.16;5074274;28;20332;-66
2023/08/10 03:42:01;;;;;;;;;;;;;;;24.70;34.73;100230.16;5074145;28;19920;-66
2023/08/10 03:44:26;;;;;;;;;;;;;;;24.62;34.71;100233.53;5083413;28;20004;-66
2023/08/10 03:46:53;;;;;;;;;;;;;;;24.62;34.86;100230.78;5094513;28;20345;-66
2023/08/10 03:49:19;;;;;;;;;;;;;;;24.62;34.91;100229.97;5094514;28;20333;-66
2023/08/10 03:51:45;;;;;;;;;;;;;;;24.57;34.68;100235.53;5078343;28;20269;-66
2023/08/10 03:54:10;;;;;;;;;;;;;;;24.49;34.47;100237.78;5073827;28;19913;-66
2023/08/10 03:56:37;;;;;;;;;;;;;;;24.49;34.76;100228.72;5073712;28;19916;-66
2023/08/10 03:59:03;;;;;;;;;;;;;;;24.45;34.74;100235.91;5073904;28;19912;-66
2023/08/10 04:01:29;;;;;;;;;;;;;;;24.46;35.36;100241.13;5073115;28;19943;-65
2023/08/10 04:03:54;;;;;;;;;;;;;;;24.49;35.17;100229.53;5072892;28;19956;-65
2023/08/10 04:06:19;;;;;;;;;;;;;;;24.50;34.62;100238.59;5073624;28;19951;-65
2023/08/10 04:08:45;;;;;;;;;;;;;;;24.39;34.80;100237.09;5073650;28;19912;-65
2023/08/10 04:11:10;;;;;;;;;;;;;;;24.37;35.26;100240.13;5073612;28;20647;-66
2023/08/10 04:13:35;;;;;;;;;;;;;;;24.42;34.84;100239.22;5073335;28;19928;-66
2023/08/10 04:16:00;;;;;;;;;;;;;;;24.38;34.94;100235.44;5073599;28;19912;-66
2023/08/10 04:18:26;;;;;;;;;;;;;;;24.40;34.93;100239.53;5073388;28;19920;-65
2023/08/10 04:20:51;;;;;;;;;;;;;;;24.40;35.25;100246.94;5073516;28;19912;-65
2023/08/10 04:23:16;;;;;;;;;;;;;;;24.41;35.24;100245.84;5073317;28;19912;-65
2023/08/10 04:25:41;;;;;;;;;;;;;;;24.46;35.48;100252.09;5072794;28;20272;-65
2023/08/10 04:28:07;;;;;;;;;;;;;;;24.44;35.08;100246.09;5055156;28;19965;-65
2023/08/10 04:30:32;;;;;;;;;;;;;;;24.45;35.15;100258.69;5073271;28;19912;-65
2023/08/10 04:32:57;;;;;;;;;;;;;;;24.44;35.16;100257.06;5072959;28;19912;-65
2023/08/10 04:35:23;;;;;;;;;;;;;;;24.45;34.89;100253.19;5072973;28;19989;-65
2023/08/10 04:37:49;;;;;;;;;;;;;;;24.46;34.94;100256.75;5072614;28;19974;-66
2023/08/10 04:40:14;;;;;;;;;;;;;;;24.49;35.29;100258.91;5073215;28;19917;-65
2023/08/10 04:42:40;;;;;;;;;;;;;;;24.53;35.27;100260.84;5073041;28;19995;-65
2023/08/10 04:45:06;;;;;;;;;;;;;;;24.59;34.86;100258.84;5087713;28;20412;-65
2023/08/10 04:47:32;;;;;;;;;;;;;;;24.59;35.16;100269.00;5093016;28;19916;-65
2023/08/10 04:49:57;;;;;;;;;;;;;;;24.63;35.03;100270.06;5090654;28;19912;-66
2023/08/10 04:52:22;;;;;;;;;;;;;;;24.64;34.74;100274.44;5072626;28;20364;-66
2023/08/10 04:54:47;;;;;;;;;;;;;;;24.59;35.12;100269.84;5072672;28;19920;-66
2023/08/10 04:57:13;;;;;;;;;;;;;;;24.64;34.98;100272.50;5073183;28;19919;-66
2023/08/10 04:59:38;;;;;;;;;;;;;;;24.64;35.04;100280.72;5072949;28;20409;-66
2023/08/10 05:02:04;;;;;;;;;;;;;;;24.67;34.84;100280.16;5073043;28;19916;-66
2023/08/10 05:04:30;;;;;;;;;;;;;;;24.68;35.16;100281.81;5072507;28;19934;-66
2023/08/10 05:06:55;;;;;;;;;;;;;;;24.75;35.09;100280.63;5072904;28;20257;-66
2023/08/10 05:09:21;;;;;;;;;;;;;;;24.70;34.52;100279.59;5073035;28;20452;-66
2023/08/10 05:11:46;;;;;;;;;;;;;;;24.69;34.47;100277.13;5072887;28;20298;-66
2023/08/10 05:14:11;;;;;;;;;;;;;;;24.58;34.30;100281.09;5073029;28;19913;-65
2023/08/10 05:16:37;;;;;;;;;;;;;;;24.63;34.56;100287.34;5072503;28;20365;-65
2023/08/10 05:19:02;;;;;;;;;;;;;;;24.67;34.40;100282.09;5072655;28;19912;-65
2023/08/10 05:21:27;;;;;;;;;;;;;;;24.70;34.63;100285.06;5072519;28;19952;-65
2023/08/10 05:23:52;;;;;;;;;;;;;;;24.72;34.56;100290.25;5072243;28;19916;-65
2023/08/10 05:26:19;;;;;;;;;;;;;;;24.76;34.77;100294.06;5070999;28;19913;-65
2023/08/10 05:28:44;;;;;;;;;;;;;;;24.83;34.64;100296.44;5072281;28;19916;-65
2023/08/10 05:31:11;;;;;;;;;;;;;;;24.87;34.90;100301.06;5072131;28;19939;-65
2023/08/10 05:33:36;;;;;;;;;;;;;;;24.90;34.93;100299.66;5072240;28;19962;-65
2023/08/10 05:36:01;;;;;;;;;;;;;;;24.95;34.64;100305.09;5071674;28;19912;-65
2023/08/10 05:38:27;;;;;;;;;;;;;;;25.00;34.86;100305.03;5072289;28;19912;-65
2023/08/10 05:40:52;;;;;;;;;;;;;;;25.08;35.00;100306.31;5072072;28;19912;-66
2023/08/10 05:43:17;;;;;;;;;;;;;;;25.09;34.68;100311.53;5072184;28;19912;-65
2023/08/10 05:45:43;;;;;;;;;;;;;;;25.19;34.77;100315.25;5091668;28;19939;-65
2023/08/10 05:48:09;;;;;;;;;;;;;;;25.25;34.60;100320.41;5092406;28;19919;-65
2023/08/10 05:50:34;;;;;;;;;;;;;;;25.34;34.55;100319.75;5082835;28;20284;-66
2023/08/10 05:52:59;;;;;;;;;;;;;;;25.39;34.10;100319.66;5072384;28;19955;-66
2023/08/10 05:55:24;;;;;;;;;;;;;;;25.46;34.08;100322.84;5072092;28;19919;-66
2023/08/10 05:57:52;;;;;;;;;;;;;;;25.55;34.39;100328.50;5072577;28;20363;-66
2023/08/10 06:00:17;;;;;;;;;;;;;;;25.62;33.94;100323.47;5072355;28;19997;-65
2023/08/10 06:02:44;;;;;;;;;;;;;;;25.67;34.00;100323.41;5072395;28;19921;-65
2023/08/10 06:05:10;;;;;;;;;;;;;;;25.73;34.05;100329.63;5072244;28;19967;-66
2023/08/10 06:07:36;;;;;;;;;;;;;;;25.76;33.56;100321.59;5072298;28;20301;-66
2023/08/10 06:10:01;;;;;;;;;;;;;;;25.82;34.04;100333.34;5072331;28;19912;-66
2023/08/10 06:12:27;;;;;;;;;;;;;;;25.87;33.97;100336.00;5071982;28;20373;-66
2023/08/10 06:14:52;;;;;;;;;;;;;;;25.92;33.83;100335.09;5072057;28;19920;-66
2023/08/10 06:17:17;;;;;;;;;;;;;;;25.95;33.47;100338.09;5071300;28;20412;-66
2023/08/10 06:19:50;;;;;;;;;;;;;;;26.08;33.43;100340.09;5072317;28;19916;-66
2023/08/10 06:22:17;;;;;;;;;;;;;;;26.14;33.52;100340.00;5072219;28;19935;-66
2023/08/10 06:24:42;;;;;;;;;;;;;;;26.22;33.26;100328.28;5071711;28;19917;-66
2023/08/10 06:27:07;;;;;;;;;;;;;;;26.33;33.01;100337.19;5072165;28;20440;-66
2023/08/10 06:29:33;;;;;;;;;;;;;;;26.36;33.05;100334.66;5075312;28;20015;-64
2023/08/10 06:31:58;;;;;;;;;;;;;;;26.33;33.02;100335.25;5075229;28;20013;-65
2023/08/10 06:34:24;;;;;;;;;;;;;;;26.41;33.42;100340.06;5075703;28;19927;-65
2023/08/10 06:36:49;;;;;;;;;;;;;;;26.46;33.21;100342.72;5074895;28;19958;-65
2023/08/10 06:39:15;;;;;;;;;;;;;;;26.56;32.44;100336.22;5075609;28;19913;-65
2023/08/10 06:41:41;;;;;;;;;;;;;;;26.72;32.83;100338.72;5075343;28;20468;-66
2023/08/10 06:44:06;;;;;;;;;;;;;;;26.80;32.81;100346.25;5074846;28;19965;-66
2023/08/10 06:46:31;;;;;;;;;;;;;;;26.78;32.18;100345.75;5072435;28;20078;-65
2023/08/10 06:48:58;;;;;;;;;;;;;;;26.85;32.57;100338.69;5075399;28;19917;-66
2023/08/10 06:51:23;;;;;;;;;;;;;;;26.85;33.01;100335.13;5074890;28;19928;-66
2023/08/10 06:53:49;;;;;;;;;;;;;;;26.85;32.45;100351.66;5073808;28;20293;-67
2023/08/10 06:56:14;;;;;;;;;;;;;;;26.91;32.36;100344.94;5074293;28;19927;-66
2023/08/10 06:58:40;;;;;;;;;;;;;;;26.88;31.83;100344.75;5073949;28;20258;-65
2023/08/10 07:01:05;;;;;;;;;;;;;;;26.88;32.07;100355.78;5074689;28;19916;-65
2023/08/10 07:03:31;;;;;;;;;;;;;;;26.91;32.00;100361.47;5063599;28;19920;-65
2023/08/10 07:05:56;;;;;;;;;;;;;;;26.94;32.42;100358.09;5053943;28;19956;-63
2023/08/10 07:08:24;;;;;;;;;;;;;;;26.94;31.81;100354.53;5054797;28;19940;-63
2023/08/10 07:10:49;;;;;;;;;;;;;;;26.94;31.80;100355.34;5053783;28;20447;-64
2023/08/10 07:13:14;;;;;;;;;;;;;;;26.91;31.97;100360.66;5053888;28;19913;-64
2023/08/10 07:15:40;;;;;;;;;;;;;;;26.71;31.14;100368.22;5054406;28;19917;-64
2023/08/10 07:18:05;;;;;;;;;;;;;;;26.76;32.73;100370.84;5053271;28;19966;-64
2023/08/10 07:20:30;;;;;;;;;;;;;;;26.80;32.45;100366.38;5054532;28;20308;-64
2023/08/10 07:22:55;;;;;;;;;;;;;;;26.84;32.81;100361.88;5052970;28;19913;-64
2023/08/10 07:25:21;;;;;;;;;;;;;;;26.94;32.89;100363.63;5054361;28;19916;-64
2023/08/10 07:27:47;;;;;;;;;;;;;;;27.02;32.68;100360.16;5053426;28;20019;-63
2023/08/10 07:30:13;;;;;;;;;;;;;;;27.06;32.61;100359.53;5054516;28;20371;-63
2023/08/10 07:32:38;;;;;;;;;;;;;;;27.10;32.40;100361.38;5054589;28;20003;-63
2023/08/10 07:35:05;;;;;;;;;;;;;;;27.09;32.24;100368.00;5054633;28;19952;-63
2023/08/10 07:37:30;;;;;;;;;;;;;;;27.16;32.22;100364.84;5053568;28;19948;-63
2023/08/10 07:39:56;;;;;;;;;;;;;;;27.23;31.56;100359.72;5054174;28;20310;-63
2023/08/10 07:42:22;;;;;;;;;;;;;;;27.27;31.80;100360.78;5053734;28;19913;-64
2023/08/10 07:44:47;;;;;;;;;;;;;;;27.29;31.42;100363.22;5065931;28;19917;-64
2023/08/10 07:47:12;;;;;;;;;;;;;;;27.35;31.70;100373.03;5059037;28;19916;-63
2023/08/10 07:49:38;;;;;;;;;;;;;;;27.38;31.48;100369.66;5054055;28;19913;-63
2023/08/10 07:52:03;;;;;;;;;;;;;;;27.38;31.00;100367.69;5053940;28;20253;-63
2023/08/10 07:54:28;;;;;;;;;;;;;;;27.46;30.94;100368.91;5053749;28;19916;-63
2023/08/10 07:56:54;;;;;;;;;;;;;;;27.55;31.13;100367.06;5053551;28;19931;-63
2023/08/10 07:59:19;;;;;;;;;;;;;;;27.59;31.02;100372.75;5053133;28;20269;-63
2023/08/10 08:01:44;;;;;;;;;;;;;;;27.66;30.85;100372.34;5035278;28;19955;-63
2023/08/10 08:04:09;;;;;;;;;;;;;;;27.55;30.65;100375.31;5069535;28;19920;-63
2023/08/10 08:06:36;;;;;;;;;;;;;;;27.65;30.62;100377.03;5073652;28;19913;-63
2023/08/10 08:09:03;;;;;;;;;;;;;;;27.64;30.62;100391.97;5073155;28;19912;-63
2023/08/10 08:11:28;;;;;;;;;;;;;;;27.72;30.85;100387.66;5073248;28;19944;-63
2023/08/10 08:13:54;;;;;;;;;;;;;;;27.88;30.53;100396.38;5073606;28;19970;-63
2023/08/10 08:16:19;;;;;;;;;;;;;;;27.94;30.57;100397.94;5073469;28;19951;-63
2023/08/10 08:18:48;;;;;;;;;;;;;;;27.93;30.63;100394.34;5073594;28;19912;-63
2023/08/10 08:21:17;;;;;;;;;;;;;;;28.07;30.71;100410.06;5073033;28;20226;-63
2023/08/10 08:23:43;;;;;;;;;;;;;;;28.17;30.53;100404.28;5072929;28;19913;-63
2023/08/10 08:26:09;;;;;;;;;;;;;;;28.20;29.81;100400.91;5072992;28;19916;-63
2023/08/10 08:28:34;;;;;;;;;;;;;;;28.24;30.10;100392.81;5073259;28;19920;-64
2023/08/10 08:30:59;;;;;;;;;;;;;;;28.21;29.11;100399.75;5073007;28;20400;-63
2023/08/10 08:33:25;;;;;;;;;;;;;;;28.22;29.92;100398.63;5073024;28;20003;-63
2023/08/10 08:35:50;;;;;;;;;;;;;;;28.06;29.81;100395.41;5072383;28;20005;-63
2023/08/10 08:38:17;;;;;;;;;;;;;;;28.16;30.43;100395.19;5072887;28;20042;-63
2023/08/10 08:40:43;;;;;;;;;;;;;;;28.06;30.35;100391.84;5073006;28;19919;-64
2023/08/10 08:43:10;;;;;;;;;;;;;;;28.01;29.41;100392.81;5072982;28;19921;-64
2023/08/10 08:45:35;;;;;;;;;;;;;;;27.98;30.18;100388.72;5092009;28;19924;-63
2023/08/10 08:48:02;;;;;;;;;;;;;;;28.10;30.46;100396.44;5093620;28;19912;-63
2023/08/10 08:50:28;;;;;;;;;;;;;;;28.23;30.44;100391.16;5092761;28;20292;-64
2023/08/10 08:52:54;;;;;;;;;;;;;;;28.35;30.91;100394.97;5093048;28;19912;-64
2023/08/10 08:55:19;;;;;;;;;;;;;;;28.46;29.93;100392.78;5093241;28;20269;-64
2023/08/10 08:57:45;;;;;;;;;;;;;;;28.56;30.63;100398.06;5092932;28;19919;-64
2023/08/10 09:00:10;;;;;;;;;;;;;;;28.69;30.17;100387.25;5093206;28;19912;-63
2023/08/10 09:02:36;;;;;;;;;;;;;;;28.69;30.32;100393.56;5093002;28;19969;-63
2023/08/10 09:05:02;;;;;;;;;;;;;;;28.65;29.93;100394.53;5093137;28;19927;-63
2023/08/10 09:07:29;;;;;;;;;;;;;;;28.79;30.53;100405.50;5078794;28;19916;-63
2023/08/10 09:09:55;;;;;;;;;;;;;;;28.99;30.47;100406.88;5072762;28;19924;-63
2023/08/10 09:12:28;;;;;;;;;;;;;;;29.08;29.23;100408.53;5072913;28;20320;-63
2023/08/10 09:15:01;;;;;;;;;;;;;;;29.11;29.14;100415.41;5072717;28;19912;-63
2023/08/10 09:17:27;;;;;;;;;;;;;;;29.22;29.69;100411.25;5072530;28;20345;-63
2023/08/10 09:19:53;;;;;;;;;;;;;;;29.21;29.61;100409.59;5072730;28;19996;-63
2023/08/10 09:22:37;;;;;;;;;;;;;;;29.25;29.41;100413.38;5072390;28;19920;-64
2023/08/10 09:25:03;;;;;;;;;;;;;;;29.40;29.40;100411.28;5070898;28;20296;-64
2023/08/10 09:27:30;;;;;;;;;;;;;;;29.40;29.04;100420.41;5072710;28;20016;-64
2023/08/10 09:29:59;;;;;;;;;;;;;;;29.45;29.14;100416.66;5072872;28;19943;-64
2023/08/10 09:32:25;;;;;;;;;;;;;;;29.31;28.99;100412.06;5072954;28;19923;-63
2023/08/10 09:34:50;;;;;;;;;;;;;;;29.41;28.99;100413.72;5072668;28;20356;-63
2023/08/10 09:37:15;;;;;;;;;;;;;;;29.53;28.94;100413.09;5071756;28;19919;-64
2023/08/10 09:39:41;;;;;;;;;;;;;;;29.61;29.02;100412.28;5072672;28;20303;-64
2023/08/10 09:42:06;;;;;;;;;;;;;;;29.64;28.80;100411.66;5072511;28;19912;-64
2023/08/10 09:44:47;;;;;;;;;;;;;;;29.64;28.76;100417.19;5082460;28;20010;-64
2023/08/10 09:47:14;;;;;;;;;;;;;;;29.57;28.83;100416.03;5092483;28;19912;-64
2023/08/10 09:49:44;;;;;;;;;;;;;;;29.46;29.19;100421.06;5092425;28;19912;-64
2023/08/10 09:52:10;;;;;;;;;;;;;;;29.38;28.46;100422.66;5074488;28;19958;-64
2023/08/10 09:54:37;;;;;;;;;;;;;;;29.21;29.42;100422.63;5092556;28;19912;-64
2023/08/10 09:57:02;;;;;;;;;;;;;;;29.20;29.26;100418.19;5092384;28;20012;-64
2023/08/10 09:59:28;;;;;;;;;;;;;;;29.17;29.44;100416.91;5092513;28;20015;-63
2023/08/10 10:01:54;;;;;;;;;;;;;;;29.14;28.74;100425.84;5080129;28;20407;-63
2023/08/10 10:04:19;;;;;;;;;;;;;;;29.15;29.15;100424.72;5075131;28;19920;-63
2023/08/10 10:06:45;;;;;;;;;;;;;;;29.17;29.22;100430.75;5075869;28;19965;-63
2023/08/10 10:09:11;;;;;;;;;;;;;;;29.11;28.70;100435.56;5075837;28;19912;-63
2023/08/10 10:11:37;;;;;;;;;;;;;;;29.19;29.52;100439.53;5075848;28;20419;-63
2023/08/10 10:14:03;;;;;;;;;;;;;;;29.17;28.64;100441.81;5075675;28;19916;-63
2023/08/10 10:16:31;;;;;;;;;;;;;;;29.24;29.44;100438.59;5075480;28;19912;-63
2023/08/10 10:18:56;;;;;;;;;;;;;;;29.34;29.07;100439.06;5075672;28;19967;-63
2023/08/10 10:21:22;;;;;;;;;;;;;;;29.42;28.83;100442.19;5075433;28;19965;-63
2023/08/10 10:23:48;;;;;;;;;;;;;;;29.57;29.17;100436.22;5075180;28;19918;-63
2023/08/10 10:26:18;;;;;;;;;;;;;;;29.68;28.73;100434.78;5074909;28;20011;-63
2023/08/10 10:29:03;;;;;;;;;;;;;;;29.98;28.89;100443.31;5075439;28;20355;-62
2023/08/10 10:31:29;;;;;;;;;;;;;;;30.13;27.84;100446.72;5075141;28;19951;-63
2023/08/10 10:33:55;;;;;;;;;;;;;;;30.12;28.42;100445.91;5075343;28;19993;-63
2023/08/10 10:36:20;;;;;;;;;;;;;;;30.13;29.30;100444.78;5074378;28;19916;-64
2023/08/10 10:38:47;;;;;;;;;;;;;;;30.24;28.22;100446.06;5074953;28;20334;-63
2023/08/10 10:41:13;;;;;;;;;;;;;;;30.14;27.43;100451.13;5074970;28;20320;-63
2023/08/10 10:43:39;;;;;;;;;;;;;;;30.14;28.17;100456.66;5077750;28;19924;-63
2023/08/10 10:46:04;;;;;;;;;;;;;;;30.23;28.64;100449.97;5095133;28;19965;-63
2023/08/10 10:48:34;;;;;;;;;;;;;;;30.23;28.75;100444.44;5095276;28;19923;-63
2023/08/10 10:51:01;;;;;;;;;;;;;;;30.35;28.57;100449.34;5095309;28;20331;-63
2023/08/10 10:53:27;;;;;;;;;;;;;;;30.41;26.25;100450.00;5095125;28;19912;-63
2023/08/10 10:55:53;;;;;;;;;;;;;;;30.64;28.69;100464.47;5094701;28;19912;-63
2023/08/10 10:58:19;;;;;;;;;;;;;;;30.90;28.49;100464.38;5094625;28;19912;-63
2023/08/10 11:00:44;;;;;;;;;;;;;;;31.13;27.90;100461.41;5054812;28;20019;-63
2023/08/10 11:03:10;;;;;;;;;;;;;;;31.17;27.89;100465.16;5054703;28;19963;-63
2023/08/10 11:05:36;;;;;;;;;;;;;;;31.32;27.53;100461.00;5036694;28;19940;-63
2023/08/10 11:08:03;;;;;;;;;;;;;;;31.48;27.83;100458.47;5072810;28;19920;-64
2023/08/10 11:10:29;;;;;;;;;;;;;;;31.59;27.49;100457.78;5074663;28;19939;-64
2023/08/10 11:12:54;;;;;;;;;;;;;;;31.63;27.13;100455.13;5056669;28;19920;-64
2023/08/10 11:15:19;;;;;;;;;;;;;;;31.77;27.61;100461.25;5073909;28;19912;-64
2023/08/10 11:17:49;;;;;;;;;;;;;;;31.84;28.04;100463.50;5074756;28;20391;-63
2023/08/10 11:20:15;;;;;;;;;;;;;;;32.00;26.54;100469.22;5074636;28;19916;-63
2023/08/10 11:22:42;;;;;;;;;;;;;;;32.11;26.62;100462.16;5074538;28;20345;-64
2023/08/10 11:25:14;;;;;;;;;;;;;;;32.34;28.49;100473.72;5074405;28;19917;-64
2023/08/10 11:27:41;;;;;;;;;;;;;;;32.85;26.65;100476.34;5074050;28;20258;-64
2023/08/10 11:30:09;;;;;;;;;;;;;;;33.24;26.44;100478.88;5074435;28;19912;-64
2023/08/10 11:32:37;;;;;;;;;;;;;;;33.58;25.71;100485.94;5074385;28;19954;-64
2023/08/10 11:35:03;;;;;;;;;;;;;;;33.89;27.30;100468.63;5056253;28;19916;-65
2023/08/10 11:37:33;;;;;;;;;;;;;;;34.03;26.35;100476.59;5073729;28;19965;-64
2023/08/10 11:40:06;;;;;;;;;;;;;;;34.23;25.96;100477.63;5056151;28;19919;-64
2023/08/10 11:42:36;;;;;;;;;;;;;;;34.06;24.59;100472.28;5074196;28;19913;-64
2023/08/10 11:45:05;;;;;;;;;;;;;;;33.68;24.35;100482.72;5088415;28;19924;-64
2023/08/10 11:47:54;;;;;;;;;;;;;;;33.39;25.94;100483.75;5094452;28;19920;-64
2023/08/10 11:50:20;;;;;;;;;;;;;;;33.20;25.34;100484.31;5080689;28;19956;-64
2023/08/10 11:52:46;;;;;;;;;;;;;;;32.84;25.04;100485.88;5093571;28;19912;-64
2023/08/10 11:55:13;;;;;;;;;;;;;;;32.61;25.45;100477.09;5088306;28;19919;-64
2023/08/10 11:57:42;;;;;;;;;;;;;;;32.44;25.53;100483.63;5073454;28;19958;-64
2023/08/10 12:00:21;;;;;;;;;;;;;;;32.39;26.12;100487.44;5073562;28;19912;-64
2023/08/10 12:03:01;;;;;;;;;;;;;;;32.31;25.62;100485.53;5077825;28;20318;-63
2023/08/10 12:05:33;;;;;;;;;;;;;;;32.34;26.93;100489.59;5076615;28;19920;-65
2023/08/10 12:07:58;;;;;;;;;;;;;;;32.30;25.26;100492.25;5073408;28;20352;-64
2023/08/10 12:10:24;;;;;;;;;;;;;;;32.16;25.31;100492.50;5073421;28;19993;-64
2023/08/10 12:12:56;;;;;;;;;;;;;;;32.03;25.70;100493.59;5073403;28;20061;-64
2023/08/10 12:15:23;;;;;;;;;;;;;;;31.97;25.41;100497.72;5073488;28;20487;-64
2023/08/10 12:17:48;;;;;;;;;;;;;;;31.93;26.30;100494.00;5073495;28;19912;-64
2023/08/10 12:20:14;;;;;;;;;;;;;;;31.86;25.91;100496.50;5073267;28;19927;-64
2023/08/10 12:22:39;;;;;;;;;;;;;;;31.88;26.54;100499.75;5073061;28;20296;-64
2023/08/10 12:25:05;;;;;;;;;;;;;;;31.93;26.20;100496.78;5072209;28;20237;-64
2023/08/10 12:27:30;;;;;;;;;;;;;;;32.07;26.43;100499.31;5072680;28;19924;-64
2023/08/10 12:29:55;;;;;;;;;;;;;;;32.28;24.72;100494.56;5072526;28;20331;-64